sensor_id;sensor_type;location;lat;lon;timestamp;P1;durP1;ratioP1;P2;durP2;ratioP2
5965;SDS011;3009;43.224;27.976;2023-12-14T00:02:02;33.23;;;23.17;;
5965;SDS011;3009;43.224;27.976;2023-12-14T00:04:31;37.93;;;21.70;;
5965;SDS011;3009;43.224;27.976;2023-12-14T00:06:59;31.03;;;18.80;;
5965;SDS011;3009;43.224;27.976;2023-12-14T00:09:27;33.20;;;20.30;;
5965;SDS011;3009;43.224;27.976;2023-12-14T00:11:56;35.70;;;19.90;;
5965;SDS011;3009;43.224;27.976;2023-12-14T00:14:24;35.93;;;20.23;;
5965;SDS011;3009;43.224;27.976;2023-12-14T00:16:54;29.00;;;19.37;;
5965;SDS011;3009;43.224;27.976;2023-12-14T00:19:26;36.47;;;20.87;;
5965;SDS011;3009;43.224;27.976;2023-12-14T00:21:54;38.87;;;21.50;;
5965;SDS011;3009;43.224;27.976;2023-12-14T00:24:23;43.77;;;22.30;;
5965;SDS011;3009;43.224;27.976;2023-12-14T00:26:53;29.37;;;19.40;;
5965;SDS011;3009;43.224;27.976;2023-12-14T00:29:21;30.90;;;19.53;;
5965;SDS011;3009;43.224;27.976;2023-12-14T00:31:50;29.93;;;19.20;;
5965;SDS011;3009;43.224;27.976;2023-12-14T00:34:20;31.93;;;20.73;;
5965;SDS011;3009;43.224;27.976;2023-12-14T00:36:48;30.30;;;20.30;;
5965;SDS011;3009;43.224;27.976;2023-12-14T00:39:17;36.57;;;20.00;;
5965;SDS011;3009;43.224;27.976;2023-12-14T00:41:46;31.13;;;19.23;;
5965;SDS011;3009;43.224;27.976;2023-12-14T00:44:14;28.70;;;18.53;;
5965;SDS011;3009;43.224;27.976;2023-12-14T00:46:43;27.43;;;19.90;;
5965;SDS011;3009;43.224;27.976;2023-12-14T00:49:11;25.70;;;19.17;;
5965;SDS011;3009;43.224;27.976;2023-12-14T00:51:41;33.60;;;18.57;;
5965;SDS011;3009;43.224;27.976;2023-12-14T00:54:09;29.43;;;18.83;;
5965;SDS011;3009;43.224;27.976;2023-12-14T00:56:38;33.23;;;18.90;;
5965;SDS011;3009;43.224;27.976;2023-12-14T00:59:06;28.10;;;18.00;;
5965;SDS011;3009;43.224;27.976;2023-12-14T01:01:35;24.20;;;17.77;;
5965;SDS011;3009;43.224;27.976;2023-12-14T01:04:03;27.90;;;21.60;;
5965;SDS011;3009;43.224;27.976;2023-12-14T01:06:32;26.97;;;19.20;;
5965;SDS011;3009;43.224;27.976;2023-12-14T01:09:02;22.27;;;16.27;;
5965;SDS011;3009;43.224;27.976;2023-12-14T01:11:30;22.07;;;15.57;;
5965;SDS011;3009;43.224;27.976;2023-12-14T01:13:59;27.17;;;15.83;;
5965;SDS011;3009;43.224;27.976;2023-12-14T01:16:27;25.13;;;17.33;;
5965;SDS011;3009;43.224;27.976;2023-12-14T01:18:56;30.63;;;19.80;;
5965;SDS011;3009;43.224;27.976;2023-12-14T01:21:24;44.80;;;23.03;;
5965;SDS011;3009;43.224;27.976;2023-12-14T01:23:53;27.30;;;17.53;;
5965;SDS011;3009;43.224;27.976;2023-12-14T01:26:22;27.37;;;18.43;;
5965;SDS011;3009;43.224;27.976;2023-12-14T01:28:51;25.07;;;16.53;;
5965;SDS011;3009;43.224;27.976;2023-12-14T01:31:19;27.93;;;17.10;;
5965;SDS011;3009;43.224;27.976;2023-12-14T01:33:49;24.33;;;15.80;;
5965;SDS011;3009;43.224;27.976;2023-12-14T01:36:21;21.70;;;15.60;;
5965;SDS011;3009;43.224;27.976;2023-12-14T01:38:50;23.00;;;15.27;;
5965;SDS011;3009;43.224;27.976;2023-12-14T01:41:18;20.20;;;16.40;;
5965;SDS011;3009;43.224;27.976;2023-12-14T01:43:48;23.93;;;14.47;;
5965;SDS011;3009;43.224;27.976;2023-12-14T01:46:17;19.10;;;14.50;;
5965;SDS011;3009;43.224;27.976;2023-12-14T01:48:45;22.43;;;14.97;;
5965;SDS011;3009;43.224;27.976;2023-12-14T01:51:13;18.70;;;14.40;;
5965;SDS011;3009;43.224;27.976;2023-12-14T01:53:42;23.17;;;15.20;;
5965;SDS011;3009;43.224;27.976;2023-12-14T01:56:10;22.83;;;14.00;;
5965;SDS011;3009;43.224;27.976;2023-12-14T01:58:39;20.63;;;15.83;;
5965;SDS011;3009;43.224;27.976;2023-12-14T02:01:10;22.00;;;16.00;;
5965;SDS011;3009;43.224;27.976;2023-12-14T02:03:47;21.80;;;16.00;;
5965;SDS011;3009;43.224;27.976;2023-12-14T02:06:17;18.70;;;12.97;;
5965;SDS011;3009;43.224;27.976;2023-12-14T02:08:45;22.53;;;13.77;;
5965;SDS011;3009;43.224;27.976;2023-12-14T02:11:14;21.97;;;14.50;;
5965;SDS011;3009;43.224;27.976;2023-12-14T02:13:42;17.80;;;14.30;;
5965;SDS011;3009;43.224;27.976;2023-12-14T02:16:12;25.30;;;14.50;;
5965;SDS011;3009;43.224;27.976;2023-12-14T02:18:41;21.90;;;15.00;;
5965;SDS011;3009;43.224;27.976;2023-12-14T02:21:10;22.50;;;14.40;;
5965;SDS011;3009;43.224;27.976;2023-12-14T02:23:43;21.27;;;15.50;;
5965;SDS011;3009;43.224;27.976;2023-12-14T02:26:12;20.83;;;14.93;;
5965;SDS011;3009;43.224;27.976;2023-12-14T02:28:41;24.40;;;13.90;;
5965;SDS011;3009;43.224;27.976;2023-12-14T02:31:09;18.80;;;14.40;;
5965;SDS011;3009;43.224;27.976;2023-12-14T02:33:38;25.10;;;14.53;;
5965;SDS011;3009;43.224;27.976;2023-12-14T02:36:06;23.23;;;14.33;;
5965;SDS011;3009;43.224;27.976;2023-12-14T02:38:35;25.60;;;16.17;;
5965;SDS011;3009;43.224;27.976;2023-12-14T02:41:06;21.00;;;15.03;;
5965;SDS011;3009;43.224;27.976;2023-12-14T02:43:34;22.63;;;15.77;;
5965;SDS011;3009;43.224;27.976;2023-12-14T02:46:04;27.17;;;16.17;;
5965;SDS011;3009;43.224;27.976;2023-12-14T02:48:33;19.70;;;15.37;;
5965;SDS011;3009;43.224;27.976;2023-12-14T02:51:02;19.13;;;14.37;;
5965;SDS011;3009;43.224;27.976;2023-12-14T02:53:31;18.43;;;13.60;;
5965;SDS011;3009;43.224;27.976;2023-12-14T02:56:01;19.13;;;14.40;;
5965;SDS011;3009;43.224;27.976;2023-12-14T02:58:32;17.73;;;11.67;;
5965;SDS011;3009;43.224;27.976;2023-12-14T03:01:00;12.10;;;9.20;;
5965;SDS011;3009;43.224;27.976;2023-12-14T03:03:29;11.67;;;9.93;;
5965;SDS011;3009;43.224;27.976;2023-12-14T03:05:57;12.13;;;9.03;;
5965;SDS011;3009;43.224;27.976;2023-12-14T03:08:26;11.90;;;8.70;;
5965;SDS011;3009;43.224;27.976;2023-12-14T03:10:54;11.80;;;9.23;;
5965;SDS011;3009;43.224;27.976;2023-12-14T03:13:22;11.00;;;9.00;;
5965;SDS011;3009;43.224;27.976;2023-12-14T03:15:52;10.77;;;8.53;;
5965;SDS011;3009;43.224;27.976;2023-12-14T03:18:21;10.60;;;9.50;;
5965;SDS011;3009;43.224;27.976;2023-12-14T03:20:49;12.70;;;9.13;;
5965;SDS011;3009;43.224;27.976;2023-12-14T03:23:18;11.67;;;9.20;;
5965;SDS011;3009;43.224;27.976;2023-12-14T03:25:46;13.33;;;8.23;;
5965;SDS011;3009;43.224;27.976;2023-12-14T03:28:15;9.93;;;8.00;;
5965;SDS011;3009;43.224;27.976;2023-12-14T03:30:43;11.87;;;8.30;;
5965;SDS011;3009;43.224;27.976;2023-12-14T03:33:13;13.70;;;8.13;;
5965;SDS011;3009;43.224;27.976;2023-12-14T03:35:42;10.53;;;8.50;;
5965;SDS011;3009;43.224;27.976;2023-12-14T03:38:10;13.60;;;8.80;;
5965;SDS011;3009;43.224;27.976;2023-12-14T03:40:39;8.80;;;7.53;;
5965;SDS011;3009;43.224;27.976;2023-12-14T03:43:08;8.87;;;7.73;;
5965;SDS011;3009;43.224;27.976;2023-12-14T03:45:36;8.73;;;6.87;;
5965;SDS011;3009;43.224;27.976;2023-12-14T03:48:04;8.80;;;7.90;;
5965;SDS011;3009;43.224;27.976;2023-12-14T03:50:34;7.63;;;6.83;;
5965;SDS011;3009;43.224;27.976;2023-12-14T03:53:03;8.70;;;7.37;;
5965;SDS011;3009;43.224;27.976;2023-12-14T03:55:31;6.90;;;6.23;;
5965;SDS011;3009;43.224;27.976;2023-12-14T03:58:00;7.60;;;6.90;;
5965;SDS011;3009;43.224;27.976;2023-12-14T04:00:29;8.23;;;7.20;;
5965;SDS011;3009;43.224;27.976;2023-12-14T04:02:57;6.40;;;5.80;;
5965;SDS011;3009;43.224;27.976;2023-12-14T04:05:25;7.27;;;6.67;;
5965;SDS011;3009;43.224;27.976;2023-12-14T04:07:56;9.60;;;6.17;;
5965;SDS011;3009;43.224;27.976;2023-12-14T04:10:24;9.63;;;7.13;;
5965;SDS011;3009;43.224;27.976;2023-12-14T04:12:53;7.80;;;6.50;;
5965;SDS011;3009;43.224;27.976;2023-12-14T04:15:21;8.93;;;6.60;;
5965;SDS011;3009;43.224;27.976;2023-12-14T04:17:50;9.73;;;6.73;;
5965;SDS011;3009;43.224;27.976;2023-12-14T04:20:18;6.90;;;6.30;;
5965;SDS011;3009;43.224;27.976;2023-12-14T04:22:47;6.43;;;5.80;;
5965;SDS011;3009;43.224;27.976;2023-12-14T04:25:16;8.33;;;7.10;;
5965;SDS011;3009;43.224;27.976;2023-12-14T04:27:45;12.73;;;6.60;;
5965;SDS011;3009;43.224;27.976;2023-12-14T04:30:13;6.70;;;6.10;;
5965;SDS011;3009;43.224;27.976;2023-12-14T04:32:42;7.87;;;6.90;;
5965;SDS011;3009;43.224;27.976;2023-12-14T04:35:11;9.07;;;6.40;;
5965;SDS011;3009;43.224;27.976;2023-12-14T04:37:40;8.23;;;6.63;;
5965;SDS011;3009;43.224;27.976;2023-12-14T04:40:09;8.70;;;6.80;;
5965;SDS011;3009;43.224;27.976;2023-12-14T04:42:39;8.03;;;6.57;;
5965;SDS011;3009;43.224;27.976;2023-12-14T04:45:08;6.97;;;6.27;;
5965;SDS011;3009;43.224;27.976;2023-12-14T04:47:36;7.00;;;6.30;;
5965;SDS011;3009;43.224;27.976;2023-12-14T04:50:05;6.73;;;5.83;;
5965;SDS011;3009;43.224;27.976;2023-12-14T04:52:34;7.30;;;6.57;;
5965;SDS011;3009;43.224;27.976;2023-12-14T04:55:04;9.77;;;6.70;;
5965;SDS011;3009;43.224;27.976;2023-12-14T04:57:35;8.20;;;6.43;;
5965;SDS011;3009;43.224;27.976;2023-12-14T05:00:05;7.60;;;6.80;;
5965;SDS011;3009;43.224;27.976;2023-12-14T05:02:35;6.07;;;5.57;;
5965;SDS011;3009;43.224;27.976;2023-12-14T05:05:04;6.70;;;6.10;;
5965;SDS011;3009;43.224;27.976;2023-12-14T05:07:33;7.00;;;6.40;;
5965;SDS011;3009;43.224;27.976;2023-12-14T05:10:01;7.10;;;6.40;;
5965;SDS011;3009;43.224;27.976;2023-12-14T05:12:30;6.57;;;5.97;;
5965;SDS011;3009;43.224;27.976;2023-12-14T05:14:58;10.53;;;5.80;;
5965;SDS011;3009;43.224;27.976;2023-12-14T05:17:28;6.90;;;6.20;;
5965;SDS011;3009;43.224;27.976;2023-12-14T05:19:57;9.30;;;6.00;;
5965;SDS011;3009;43.224;27.976;2023-12-14T05:22:26;6.20;;;5.67;;
5965;SDS011;3009;43.224;27.976;2023-12-14T05:24:55;6.70;;;5.87;;
5965;SDS011;3009;43.224;27.976;2023-12-14T05:27:24;7.10;;;6.40;;
5965;SDS011;3009;43.224;27.976;2023-12-14T05:29:52;11.13;;;6.20;;
5965;SDS011;3009;43.224;27.976;2023-12-14T05:32:21;10.10;;;6.03;;
5965;SDS011;3009;43.224;27.976;2023-12-14T05:34:50;10.90;;;5.87;;
5965;SDS011;3009;43.224;27.976;2023-12-14T05:37:19;8.43;;;7.13;;
5965;SDS011;3009;43.224;27.976;2023-12-14T05:39:47;6.77;;;6.17;;
5965;SDS011;3009;43.224;27.976;2023-12-14T05:42:16;6.97;;;5.77;;
5965;SDS011;3009;43.224;27.976;2023-12-14T05:44:45;8.40;;;6.10;;
5965;SDS011;3009;43.224;27.976;2023-12-14T05:47:13;6.10;;;5.50;;
5965;SDS011;3009;43.224;27.976;2023-12-14T05:49:42;6.00;;;5.50;;
5965;SDS011;3009;43.224;27.976;2023-12-14T05:52:12;17.43;;;6.93;;
5965;SDS011;3009;43.224;27.976;2023-12-14T05:54:41;6.30;;;5.80;;
5965;SDS011;3009;43.224;27.976;2023-12-14T05:57:09;6.70;;;5.73;;
5965;SDS011;3009;43.224;27.976;2023-12-14T05:59:40;6.37;;;5.73;;
5965;SDS011;3009;43.224;27.976;2023-12-14T06:02:10;7.40;;;5.40;;
5965;SDS011;3009;43.224;27.976;2023-12-14T06:04:38;5.90;;;5.40;;
5965;SDS011;3009;43.224;27.976;2023-12-14T06:07:10;6.93;;;5.83;;
5965;SDS011;3009;43.224;27.976;2023-12-14T06:09:40;11.30;;;5.80;;
5965;SDS011;3009;43.224;27.976;2023-12-14T06:12:08;7.97;;;6.27;;
5965;SDS011;3009;43.224;27.976;2023-12-14T06:14:37;6.13;;;5.63;;
5965;SDS011;3009;43.224;27.976;2023-12-14T06:17:06;7.10;;;6.00;;
5965;SDS011;3009;43.224;27.976;2023-12-14T06:19:34;5.83;;;5.20;;
5965;SDS011;3009;43.224;27.976;2023-12-14T06:22:03;6.30;;;5.70;;
5965;SDS011;3009;43.224;27.976;2023-12-14T06:24:33;5.53;;;5.03;;
5965;SDS011;3009;43.224;27.976;2023-12-14T06:27:03;7.60;;;6.57;;
5965;SDS011;3009;43.224;27.976;2023-12-14T06:29:32;8.70;;;5.77;;
5965;SDS011;3009;43.224;27.976;2023-12-14T06:32:00;9.00;;;7.10;;
5965;SDS011;3009;43.224;27.976;2023-12-14T06:34:29;9.20;;;6.27;;
5965;SDS011;3009;43.224;27.976;2023-12-14T06:36:58;7.93;;;6.53;;
5965;SDS011;3009;43.224;27.976;2023-12-14T06:39:28;7.00;;;6.30;;
5965;SDS011;3009;43.224;27.976;2023-12-14T06:41:57;7.60;;;5.90;;
5965;SDS011;3009;43.224;27.976;2023-12-14T06:44:27;8.10;;;7.07;;
5965;SDS011;3009;43.224;27.976;2023-12-14T06:46:58;8.33;;;7.50;;
5965;SDS011;3009;43.224;27.976;2023-12-14T06:49:26;7.60;;;6.80;;
5965;SDS011;3009;43.224;27.976;2023-12-14T06:51:55;7.60;;;5.60;;
5965;SDS011;3009;43.224;27.976;2023-12-14T06:54:24;10.83;;;6.17;;
5965;SDS011;3009;43.224;27.976;2023-12-14T06:56:53;6.97;;;6.30;;
5965;SDS011;3009;43.224;27.976;2023-12-14T06:59:21;7.17;;;5.73;;
5965;SDS011;3009;43.224;27.976;2023-12-14T07:01:52;8.50;;;6.20;;
5965;SDS011;3009;43.224;27.976;2023-12-14T07:04:22;5.73;;;5.23;;
5965;SDS011;3009;43.224;27.976;2023-12-14T07:06:50;6.17;;;5.47;;
5965;SDS011;3009;43.224;27.976;2023-12-14T07:09:19;6.23;;;5.40;;
5965;SDS011;3009;43.224;27.976;2023-12-14T07:11:47;8.90;;;6.07;;
5965;SDS011;3009;43.224;27.976;2023-12-14T07:14:16;6.93;;;5.43;;
5965;SDS011;3009;43.224;27.976;2023-12-14T07:16:48;5.90;;;5.37;;
5965;SDS011;3009;43.224;27.976;2023-12-14T07:19:18;8.43;;;5.60;;
5965;SDS011;3009;43.224;27.976;2023-12-14T07:21:46;6.10;;;5.50;;
5965;SDS011;3009;43.224;27.976;2023-12-14T07:24:15;6.83;;;5.30;;
5965;SDS011;3009;43.224;27.976;2023-12-14T07:26:43;6.23;;;5.50;;
5965;SDS011;3009;43.224;27.976;2023-12-14T07:29:11;10.20;;;5.77;;
5965;SDS011;3009;43.224;27.976;2023-12-14T07:31:40;7.90;;;6.00;;
5965;SDS011;3009;43.224;27.976;2023-12-14T07:36:42;8.07;;;6.70;;
5965;SDS011;3009;43.224;27.976;2023-12-14T07:39:10;8.03;;;6.57;;
5965;SDS011;3009;43.224;27.976;2023-12-14T07:41:38;14.67;;;6.80;;
5965;SDS011;3009;43.224;27.976;2023-12-14T07:44:07;6.73;;;5.93;;
5965;SDS011;3009;43.224;27.976;2023-12-14T07:46:35;8.73;;;5.70;;
5965;SDS011;3009;43.224;27.976;2023-12-14T07:49:08;6.33;;;5.20;;
5965;SDS011;3009;43.224;27.976;2023-12-14T07:51:37;6.23;;;5.63;;
5965;SDS011;3009;43.224;27.976;2023-12-14T07:54:07;7.33;;;5.90;;
5965;SDS011;3009;43.224;27.976;2023-12-14T07:56:36;8.73;;;6.30;;
5965;SDS011;3009;43.224;27.976;2023-12-14T07:59:05;10.00;;;7.33;;
5965;SDS011;3009;43.224;27.976;2023-12-14T08:01:34;15.80;;;7.27;;
5965;SDS011;3009;43.224;27.976;2023-12-14T08:04:03;15.40;;;7.87;;
5965;SDS011;3009;43.224;27.976;2023-12-14T08:06:32;8.37;;;6.87;;
5965;SDS011;3009;43.224;27.976;2023-12-14T08:09:00;11.23;;;7.67;;
5965;SDS011;3009;43.224;27.976;2023-12-14T08:11:31;11.13;;;7.17;;
5965;SDS011;3009;43.224;27.976;2023-12-14T08:14:00;8.10;;;6.83;;
5965;SDS011;3009;43.224;27.976;2023-12-14T08:16:29;8.73;;;6.87;;
5965;SDS011;3009;43.224;27.976;2023-12-14T08:18:57;9.10;;;7.07;;
5965;SDS011;3009;43.224;27.976;2023-12-14T08:21:26;8.80;;;6.47;;
5965;SDS011;3009;43.224;27.976;2023-12-14T08:23:55;22.23;;;7.30;;
5965;SDS011;3009;43.224;27.976;2023-12-14T08:26:23;11.60;;;7.30;;
5965;SDS011;3009;43.224;27.976;2023-12-14T08:28:53;8.30;;;7.40;;
5965;SDS011;3009;43.224;27.976;2023-12-14T08:31:22;7.03;;;6.33;;
5965;SDS011;3009;43.224;27.976;2023-12-14T08:33:50;8.93;;;7.37;;
5965;SDS011;3009;43.224;27.976;2023-12-14T08:36:19;7.53;;;6.67;;
5965;SDS011;3009;43.224;27.976;2023-12-14T08:38:47;7.67;;;6.87;;
5965;SDS011;3009;43.224;27.976;2023-12-14T08:41:16;10.67;;;7.13;;
5965;SDS011;3009;43.224;27.976;2023-12-14T08:43:44;9.83;;;6.87;;
5965;SDS011;3009;43.224;27.976;2023-12-14T08:46:15;13.70;;;7.20;;
5965;SDS011;3009;43.224;27.976;2023-12-14T08:48:43;8.00;;;6.33;;
5965;SDS011;3009;43.224;27.976;2023-12-14T08:51:12;8.20;;;6.80;;
5965;SDS011;3009;43.224;27.976;2023-12-14T08:53:40;9.37;;;6.33;;
5965;SDS011;3009;43.224;27.976;2023-12-14T08:56:09;6.40;;;5.80;;
5965;SDS011;3009;43.224;27.976;2023-12-14T08:58:38;6.63;;;5.80;;
5965;SDS011;3009;43.224;27.976;2023-12-14T09:01:06;7.80;;;6.20;;
5965;SDS011;3009;43.224;27.976;2023-12-14T09:03:36;7.70;;;6.10;;
5965;SDS011;3009;43.224;27.976;2023-12-14T09:06:05;8.43;;;6.00;;
5965;SDS011;3009;43.224;27.976;2023-12-14T09:08:34;6.83;;;6.13;;
5965;SDS011;3009;43.224;27.976;2023-12-14T09:11:02;6.60;;;6.00;;
5965;SDS011;3009;43.224;27.976;2023-12-14T09:13:31;8.90;;;5.97;;
5965;SDS011;3009;43.224;27.976;2023-12-14T09:16:00;6.33;;;5.73;;
5965;SDS011;3009;43.224;27.976;2023-12-14T09:18:28;7.27;;;5.87;;
5965;SDS011;3009;43.224;27.976;2023-12-14T09:20:58;6.80;;;6.13;;
5965;SDS011;3009;43.224;27.976;2023-12-14T09:23:27;7.70;;;6.23;;
5965;SDS011;3009;43.224;27.976;2023-12-14T09:25:55;12.37;;;6.20;;
5965;SDS011;3009;43.224;27.976;2023-12-14T09:28:24;7.93;;;6.50;;
5965;SDS011;3009;43.224;27.976;2023-12-14T09:30:53;10.50;;;7.27;;
5965;SDS011;3009;43.224;27.976;2023-12-14T09:33:22;14.40;;;8.67;;
5965;SDS011;3009;43.224;27.976;2023-12-14T09:35:50;12.17;;;9.37;;
5965;SDS011;3009;43.224;27.976;2023-12-14T09:38:21;16.37;;;11.33;;
5965;SDS011;3009;43.224;27.976;2023-12-14T09:40:50;17.23;;;9.90;;
5965;SDS011;3009;43.224;27.976;2023-12-14T09:43:18;16.13;;;10.00;;
5965;SDS011;3009;43.224;27.976;2023-12-14T09:45:48;18.60;;;9.47;;
5965;SDS011;3009;43.224;27.976;2023-12-14T09:48:18;15.23;;;8.20;;
5965;SDS011;3009;43.224;27.976;2023-12-14T09:50:47;10.37;;;7.33;;
5965;SDS011;3009;43.224;27.976;2023-12-14T09:53:17;17.23;;;8.50;;
5965;SDS011;3009;43.224;27.976;2023-12-14T09:55:47;14.87;;;8.43;;
5965;SDS011;3009;43.224;27.976;2023-12-14T09:58:16;12.60;;;8.53;;
5965;SDS011;3009;43.224;27.976;2023-12-14T10:00:44;16.00;;;7.80;;
5965;SDS011;3009;43.224;27.976;2023-12-14T10:03:20;10.97;;;7.43;;
5965;SDS011;3009;43.224;27.976;2023-12-14T10:05:50;9.63;;;7.80;;
5965;SDS011;3009;43.224;27.976;2023-12-14T10:08:19;9.17;;;6.60;;
5965;SDS011;3009;43.224;27.976;2023-12-14T10:10:50;11.97;;;7.27;;
5965;SDS011;3009;43.224;27.976;2023-12-14T10:13:21;16.23;;;6.70;;
5965;SDS011;3009;43.224;27.976;2023-12-14T10:16:03;13.30;;;7.13;;
5965;SDS011;3009;43.224;27.976;2023-12-14T10:18:32;6.70;;;5.73;;
5965;SDS011;3009;43.224;27.976;2023-12-14T10:21:04;9.63;;;6.20;;
5965;SDS011;3009;43.224;27.976;2023-12-14T10:23:34;13.33;;;6.60;;
5965;SDS011;3009;43.224;27.976;2023-12-14T10:26:05;13.23;;;7.70;;
5965;SDS011;3009;43.224;27.976;2023-12-14T10:28:34;10.27;;;6.80;;
5965;SDS011;3009;43.224;27.976;2023-12-14T10:31:03;8.93;;;6.27;;
5965;SDS011;3009;43.224;27.976;2023-12-14T10:33:32;10.03;;;6.60;;
5965;SDS011;3009;43.224;27.976;2023-12-14T10:36:00;7.07;;;5.87;;
5965;SDS011;3009;43.224;27.976;2023-12-14T10:38:30;12.40;;;6.83;;
5965;SDS011;3009;43.224;27.976;2023-12-14T10:41:00;7.47;;;6.53;;
5965;SDS011;3009;43.224;27.976;2023-12-14T10:43:31;8.80;;;6.60;;
5965;SDS011;3009;43.224;27.976;2023-12-14T10:46:15;20.00;;;8.20;;
5965;SDS011;3009;43.224;27.976;2023-12-14T10:48:44;13.53;;;7.60;;
5965;SDS011;3009;43.224;27.976;2023-12-14T10:51:15;11.10;;;7.40;;
5965;SDS011;3009;43.224;27.976;2023-12-14T10:53:46;9.33;;;6.43;;
5965;SDS011;3009;43.224;27.976;2023-12-14T10:56:16;13.10;;;8.30;;
5965;SDS011;3009;43.224;27.976;2023-12-14T10:58:47;10.87;;;7.50;;
5965;SDS011;3009;43.224;27.976;2023-12-14T11:01:16;15.90;;;6.50;;
5965;SDS011;3009;43.224;27.976;2023-12-14T11:03:47;14.83;;;5.20;;
5965;SDS011;3009;43.224;27.976;2023-12-14T11:06:29;12.90;;;7.17;;
5965;SDS011;3009;43.224;27.976;2023-12-14T11:09:00;7.50;;;5.67;;
5965;SDS011;3009;43.224;27.976;2023-12-14T11:11:39;9.10;;;6.27;;
5965;SDS011;3009;43.224;27.976;2023-12-14T11:14:12;9.53;;;7.00;;
5965;SDS011;3009;43.224;27.976;2023-12-14T11:16:40;14.73;;;7.87;;
5965;SDS011;3009;43.224;27.976;2023-12-14T11:19:26;14.07;;;7.53;;
5965;SDS011;3009;43.224;27.976;2023-12-14T11:22:09;12.57;;;7.30;;
5965;SDS011;3009;43.224;27.976;2023-12-14T11:24:42;11.17;;;6.97;;
5965;SDS011;3009;43.224;27.976;2023-12-14T11:27:11;10.17;;;6.53;;
5965;SDS011;3009;43.224;27.976;2023-12-14T11:29:41;9.13;;;5.97;;
5965;SDS011;3009;43.224;27.976;2023-12-14T11:32:10;6.93;;;6.10;;
5965;SDS011;3009;43.224;27.976;2023-12-14T11:34:39;6.80;;;6.20;;
5965;SDS011;3009;43.224;27.976;2023-12-14T11:37:09;11.87;;;6.60;;
5965;SDS011;3009;43.224;27.976;2023-12-14T11:39:38;10.73;;;6.83;;
5965;SDS011;3009;43.224;27.976;2023-12-14T11:42:07;9.70;;;6.47;;
5965;SDS011;3009;43.224;27.976;2023-12-14T11:44:37;10.10;;;6.00;;
5965;SDS011;3009;43.224;27.976;2023-12-14T11:47:10;6.93;;;5.90;;
5965;SDS011;3009;43.224;27.976;2023-12-14T11:49:39;9.80;;;6.93;;
5965;SDS011;3009;43.224;27.976;2023-12-14T11:52:07;9.53;;;6.50;;
5965;SDS011;3009;43.224;27.976;2023-12-14T11:54:36;10.23;;;5.80;;
5965;SDS011;3009;43.224;27.976;2023-12-14T11:57:05;10.50;;;6.70;;
5965;SDS011;3009;43.224;27.976;2023-12-14T11:59:36;8.00;;;6.30;;
5965;SDS011;3009;43.224;27.976;2023-12-14T12:02:24;9.27;;;5.70;;
5965;SDS011;3009;43.224;27.976;2023-12-14T12:04:52;8.90;;;5.53;;
5965;SDS011;3009;43.224;27.976;2023-12-14T12:07:21;7.83;;;5.60;;
5965;SDS011;3009;43.224;27.976;2023-12-14T12:09:50;11.43;;;5.27;;
5965;SDS011;3009;43.224;27.976;2023-12-14T12:15:08;13.83;;;5.63;;
5965;SDS011;3009;43.224;27.976;2023-12-14T12:17:40;9.07;;;5.60;;
5965;SDS011;3009;43.224;27.976;2023-12-14T12:20:10;9.63;;;5.23;;
5965;SDS011;3009;43.224;27.976;2023-12-14T12:22:39;9.30;;;5.30;;
5965;SDS011;3009;43.224;27.976;2023-12-14T12:25:07;14.20;;;6.90;;
5965;SDS011;3009;43.224;27.976;2023-12-14T12:27:41;22.70;;;8.17;;
5965;SDS011;3009;43.224;27.976;2023-12-14T12:30:11;17.40;;;9.50;;
5965;SDS011;3009;43.224;27.976;2023-12-14T12:32:41;20.43;;;7.10;;
5965;SDS011;3009;43.224;27.976;2023-12-14T12:35:10;14.83;;;8.73;;
5965;SDS011;3009;43.224;27.976;2023-12-14T12:37:38;16.47;;;7.20;;
5965;SDS011;3009;43.224;27.976;2023-12-14T12:40:07;10.60;;;5.97;;
5965;SDS011;3009;43.224;27.976;2023-12-14T12:42:36;7.00;;;5.80;;
5965;SDS011;3009;43.224;27.976;2023-12-14T12:45:05;16.80;;;6.00;;
5965;SDS011;3009;43.224;27.976;2023-12-14T12:47:34;10.83;;;5.93;;
5965;SDS011;3009;43.224;27.976;2023-12-14T12:50:05;14.50;;;6.80;;
5965;SDS011;3009;43.224;27.976;2023-12-14T12:52:35;9.27;;;5.90;;
5965;SDS011;3009;43.224;27.976;2023-12-14T12:55:04;7.63;;;5.70;;
5965;SDS011;3009;43.224;27.976;2023-12-14T12:57:33;9.20;;;5.20;;
5965;SDS011;3009;43.224;27.976;2023-12-14T13:00:02;8.03;;;6.27;;
5965;SDS011;3009;43.224;27.976;2023-12-14T13:02:34;9.60;;;5.97;;
5965;SDS011;3009;43.224;27.976;2023-12-14T13:05:06;8.27;;;6.07;;
5965;SDS011;3009;43.224;27.976;2023-12-14T13:07:38;13.13;;;5.87;;
5965;SDS011;3009;43.224;27.976;2023-12-14T13:10:07;8.90;;;5.70;;
5965;SDS011;3009;43.224;27.976;2023-12-14T13:12:53;7.40;;;5.60;;
5965;SDS011;3009;43.224;27.976;2023-12-14T13:15:23;7.90;;;6.00;;
5965;SDS011;3009;43.224;27.976;2023-12-14T13:17:52;11.57;;;6.20;;
5965;SDS011;3009;43.224;27.976;2023-12-14T13:20:23;9.83;;;5.83;;
5965;SDS011;3009;43.224;27.976;2023-12-14T13:22:52;9.80;;;5.57;;
5965;SDS011;3009;43.224;27.976;2023-12-14T13:25:21;19.47;;;7.30;;
5965;SDS011;3009;43.224;27.976;2023-12-14T13:27:53;9.17;;;5.90;;
5965;SDS011;3009;43.224;27.976;2023-12-14T13:30:21;9.90;;;6.50;;
5965;SDS011;3009;43.224;27.976;2023-12-14T13:32:50;15.40;;;7.10;;
5965;SDS011;3009;43.224;27.976;2023-12-14T13:35:20;13.90;;;6.90;;
5965;SDS011;3009;43.224;27.976;2023-12-14T13:37:51;14.67;;;6.73;;
5965;SDS011;3009;43.224;27.976;2023-12-14T13:40:21;15.10;;;7.00;;
5965;SDS011;3009;43.224;27.976;2023-12-14T13:42:50;9.80;;;7.10;;
5965;SDS011;3009;43.224;27.976;2023-12-14T13:45:32;20.50;;;6.87;;
5965;SDS011;3009;43.224;27.976;2023-12-14T13:48:01;12.13;;;7.10;;
5965;SDS011;3009;43.224;27.976;2023-12-14T13:50:32;11.53;;;6.93;;
5965;SDS011;3009;43.224;27.976;2023-12-14T13:53:01;17.37;;;7.00;;
5965;SDS011;3009;43.224;27.976;2023-12-14T13:55:29;13.90;;;7.20;;
5965;SDS011;3009;43.224;27.976;2023-12-14T13:57:58;16.53;;;6.03;;
5965;SDS011;3009;43.224;27.976;2023-12-14T14:00:27;18.10;;;7.03;;
5965;SDS011;3009;43.224;27.976;2023-12-14T14:02:56;6.17;;;5.57;;
5965;SDS011;3009;43.224;27.976;2023-12-14T14:05:26;14.53;;;7.50;;
5965;SDS011;3009;43.224;27.976;2023-12-14T14:07:56;25.93;;;6.30;;
5965;SDS011;3009;43.224;27.976;2023-12-14T14:10:25;8.57;;;5.70;;
5965;SDS011;3009;43.224;27.976;2023-12-14T14:12:54;9.83;;;5.60;;
5965;SDS011;3009;43.224;27.976;2023-12-14T14:15:23;12.63;;;8.13;;
5965;SDS011;3009;43.224;27.976;2023-12-14T14:17:52;17.03;;;9.03;;
5965;SDS011;3009;43.224;27.976;2023-12-14T14:20:21;22.57;;;8.40;;
5965;SDS011;3009;43.224;27.976;2023-12-14T14:22:51;12.57;;;7.60;;
5965;SDS011;3009;43.224;27.976;2023-12-14T14:25:21;16.23;;;7.33;;
5965;SDS011;3009;43.224;27.976;2023-12-14T14:27:50;20.10;;;6.77;;
5965;SDS011;3009;43.224;27.976;2023-12-14T14:30:19;8.07;;;6.90;;
5965;SDS011;3009;43.224;27.976;2023-12-14T14:32:47;14.80;;;7.43;;
5965;SDS011;3009;43.224;27.976;2023-12-14T14:35:16;10.40;;;6.50;;
5965;SDS011;3009;43.224;27.976;2023-12-14T14:37:45;14.63;;;7.93;;
5965;SDS011;3009;43.224;27.976;2023-12-14T14:40:14;17.70;;;7.77;;
5965;SDS011;3009;43.224;27.976;2023-12-14T14:42:44;11.20;;;8.00;;
5965;SDS011;3009;43.224;27.976;2023-12-14T14:45:13;17.93;;;9.27;;
5965;SDS011;3009;43.224;27.976;2023-12-14T14:47:42;20.17;;;8.67;;
5965;SDS011;3009;43.224;27.976;2023-12-14T14:50:11;10.67;;;7.83;;
5965;SDS011;3009;43.224;27.976;2023-12-14T14:52:39;11.77;;;8.10;;
5965;SDS011;3009;43.224;27.976;2023-12-14T14:55:08;10.47;;;8.57;;
5965;SDS011;3009;43.224;27.976;2023-12-14T14:57:36;15.23;;;8.53;;
5965;SDS011;3009;43.224;27.976;2023-12-14T15:00:07;16.00;;;9.17;;
5965;SDS011;3009;43.224;27.976;2023-12-14T15:02:36;16.73;;;9.60;;
5965;SDS011;3009;43.224;27.976;2023-12-14T15:05:05;18.40;;;9.37;;
5965;SDS011;3009;43.224;27.976;2023-12-14T15:07:34;15.83;;;9.20;;
5965;SDS011;3009;43.224;27.976;2023-12-14T15:10:03;14.77;;;10.13;;